sensor_id;sensor_type;location;lat;lon;timestamp;temperature;humidity
35565;DHT22;21668;44.784;10.336;2022-09-09T00:09:13;20.60;99.90
35565;DHT22;21668;44.784;10.336;2022-09-09T00:13:45;20.60;99.90
35565;DHT22;21668;44.784;10.336;2022-09-09T00:16:57;20.50;99.90
35565;DHT22;21668;44.784;10.336;2022-09-09T00:23:44;20.50;99.90
35565;DHT22;21668;44.784;10.336;2022-09-09T00:28:10;20.40;99.90
35565;DHT22;21668;44.784;10.336;2022-09-09T00:31:16;20.40;99.90
35565;DHT22;21668;44.784;10.336;2022-09-09T00:34:36;20.30;99.90
35565;DHT22;21668;44.784;10.336;2022-09-09T00:37:44;20.30;99.90
35565;DHT22;21668;44.784;10.336;2022-09-09T00:48:37;20.00;99.90
35565;DHT22;21668;44.784;10.336;2022-09-09T00:55:54;19.90;99.90
35565;DHT22;21668;44.784;10.336;2022-09-09T00:58:36;19.80;99.90
35565;DHT22;21668;44.784;10.336;2022-09-09T01:01:40;19.80;99.90
35565;DHT22;21668;44.784;10.336;2022-09-09T01:04:44;19.80;99.90
35565;DHT22;21668;44.784;10.336;2022-09-09T01:07:53;19.70;99.90
35565;DHT22;21668;44.784;10.336;2022-09-09T01:19:08;19.60;99.90
35565;DHT22;21668;44.784;10.336;2022-09-09T01:22:34;19.60;99.90
35565;DHT22;21668;44.784;10.336;2022-09-09T01:28:56;19.40;99.90
35565;DHT22;21668;44.784;10.336;2022-09-09T01:39:12;19.30;99.90
35565;DHT22;21668;44.784;10.336;2022-09-09T01:42:17;19.30;99.90
35565;DHT22;21668;44.784;10.336;2022-09-09T01:49:34;19.30;99.90
35565;DHT22;21668;44.784;10.336;2022-09-09T01:57:12;19.30;99.90
35565;DHT22;21668;44.784;10.336;2022-09-09T02:00:21;19.30;99.90
35565;DHT22;21668;44.784;10.336;2022-09-09T02:03:33;19.30;99.90
35565;DHT22;21668;44.784;10.336;2022-09-09T02:06:55;19.30;99.90
35565;DHT22;21668;44.784;10.336;2022-09-09T02:13:45;19.20;99.90
35565;DHT22;21668;44.784;10.336;2022-09-09T02:16:56;19.10;99.90
35565;DHT22;21668;44.784;10.336;2022-09-09T02:20:15;19.00;99.90
35565;DHT22;21668;44.784;10.336;2022-09-09T02:23:30;19.00;99.90
35565;DHT22;21668;44.784;10.336;2022-09-09T02:26:40;18.90;99.90
35565;DHT22;21668;44.784;10.336;2022-09-09T02:29:48;18.80;99.90
35565;DHT22;21668;44.784;10.336;2022-09-09T02:33:03;18.70;99.90
35565;DHT22;21668;44.784;10.336;2022-09-09T02:36:22;18.70;99.90
35565;DHT22;21668;44.784;10.336;2022-09-09T02:39:28;18.70;99.90
35565;DHT22;21668;44.784;10.336;2022-09-09T02:49:50;18.60;99.90
35565;DHT22;21668;44.784;10.336;2022-09-09T02:57:54;18.60;99.90
35565;DHT22;21668;44.784;10.336;2022-09-09T03:01:04;18.50;99.90
35565;DHT22;21668;44.784;10.336;2022-09-09T03:11:59;18.40;99.90
35565;DHT22;21668;44.784;10.336;2022-09-09T03:15:14;18.40;99.90
35565;DHT22;21668;44.784;10.336;2022-09-09T03:33:30;18.20;99.90
35565;DHT22;21668;44.784;10.336;2022-09-09T03:36:35;18.10;99.90
35565;DHT22;21668;44.784;10.336;2022-09-09T03:39:40;18.00;99.90
35565;DHT22;21668;44.784;10.336;2022-09-09T03:42:45;18.10;99.90
35565;DHT22;21668;44.784;10.336;2022-09-09T03:45:50;18.00;99.90
35565;DHT22;21668;44.784;10.336;2022-09-09T03:48:54;18.10;99.90
35565;DHT22;21668;44.784;10.336;2022-09-09T03:51:58;18.10;99.90
35565;DHT22;21668;44.784;10.336;2022-09-09T03:59:00;18.00;99.90
35565;DHT22;21668;44.784;10.336;2022-09-09T04:02:10;18.00;99.90
35565;DHT22;21668;44.784;10.336;2022-09-09T04:05:14;18.00;99.90
35565;DHT22;21668;44.784;10.336;2022-09-09T04:08:20;18.00;99.90
35565;DHT22;21668;44.784;10.336;2022-09-09T04:11:25;18.00;99.90
35565;DHT22;21668;44.784;10.336;2022-09-09T04:14:32;17.90;99.90
35565;DHT22;21668;44.784;10.336;2022-09-09T04:17:36;17.80;99.90
35565;DHT22;21668;44.784;10.336;2022-09-09T04:20:41;17.90;99.90
35565;DHT22;21668;44.784;10.336;2022-09-09T04:23:50;17.90;99.90
35565;DHT22;21668;44.784;10.336;2022-09-09T04:27:17;17.90;99.90
35565;DHT22;21668;44.784;10.336;2022-09-09T04:38:40;17.90;99.90
35565;DHT22;21668;44.784;10.336;2022-09-09T04:41:44;17.90;99.90
35565;DHT22;21668;44.784;10.336;2022-09-09T04:44:48;17.90;99.90
35565;DHT22;21668;44.784;10.336;2022-09-09T04:51:23;18.00;99.90
35565;DHT22;21668;44.784;10.336;2022-09-09T04:54:29;17.90;99.90
35565;DHT22;21668;44.784;10.336;2022-09-09T04:57:34;17.80;99.90
35565;DHT22;21668;44.784;10.336;2022-09-09T05:00:38;17.80;99.90
35565;DHT22;21668;44.784;10.336;2022-09-09T05:03:45;17.80;99.90
35565;DHT22;21668;44.784;10.336;2022-09-09T05:14:33;17.70;99.90
35565;DHT22;21668;44.784;10.336;2022-09-09T05:29:39;18.60;99.90
35565;DHT22;21668;44.784;10.336;2022-09-09T05:42:41;19.30;99.90
35565;DHT22;21668;44.784;10.336;2022-09-09T05:45:47;19.30;99.90
35565;DHT22;21668;44.784;10.336;2022-09-09T05:48:51;19.30;99.90
35565;DHT22;21668;44.784;10.336;2022-09-09T05:52:03;19.20;99.90
35565;DHT22;21668;44.784;10.336;2022-09-09T05:55:07;19.20;99.90
35565;DHT22;21668;44.784;10.336;2022-09-09T05:58:25;19.30;99.90
35565;DHT22;21668;44.784;10.336;2022-09-09T06:01:33;20.00;99.90
35565;DHT22;21668;44.784;10.336;2022-09-09T06:04:38;20.00;99.90
35565;DHT22;21668;44.784;10.336;2022-09-09T06:07:42;20.00;99.90
35565;DHT22;21668;44.784;10.336;2022-09-09T06:10:47;20.00;99.90
35565;DHT22;21668;44.784;10.336;2022-09-09T06:13:51;20.00;99.90
35565;DHT22;21668;44.784;10.336;2022-09-09T06:16:57;20.00;99.90
35565;DHT22;21668;44.784;10.336;2022-09-09T06:20:06;20.10;99.90
35565;DHT22;21668;44.784;10.336;2022-09-09T06:23:10;20.20;99.90
35565;DHT22;21668;44.784;10.336;2022-09-09T06:26:16;20.70;99.90
35565;DHT22;21668;44.784;10.336;2022-09-09T06:29:22;20.90;99.90
35565;DHT22;21668;44.784;10.336;2022-09-09T06:32:28;21.00;99.90
35565;DHT22;21668;44.784;10.336;2022-09-09T06:35:32;21.00;99.90
35565;DHT22;21668;44.784;10.336;2022-09-09T06:38:36;20.90;99.90
35565;DHT22;21668;44.784;10.336;2022-09-09T06:41:40;20.80;99.90
35565;DHT22;21668;44.784;10.336;2022-09-09T06:44:52;20.90;99.90
35565;DHT22;21668;44.784;10.336;2022-09-09T06:48:03;21.10;99.90
35565;DHT22;21668;44.784;10.336;2022-09-09T06:51:08;21.30;99.90
35565;DHT22;21668;44.784;10.336;2022-09-09T06:54:13;21.40;99.90
35565;DHT22;21668;44.784;10.336;2022-09-09T06:57:20;21.90;99.90
35565;DHT22;21668;44.784;10.336;2022-09-09T07:00:24;22.70;99.90
35565;DHT22;21668;44.784;10.336;2022-09-09T07:03:28;23.60;99.90
35565;DHT22;21668;44.784;10.336;2022-09-09T07:06:33;23.90;99.90
35565;DHT22;21668;44.784;10.336;2022-09-09T07:09:40;24.10;99.90
35565;DHT22;21668;44.784;10.336;2022-09-09T07:12:43;23.90;99.90
35565;DHT22;21668;44.784;10.336;2022-09-09T07:15:49;23.70;99.90
35565;DHT22;21668;44.784;10.336;2022-09-09T07:18:53;23.30;99.90
35565;DHT22;21668;44.784;10.336;2022-09-09T07:22:01;22.80;99.90
35565;DHT22;21668;44.784;10.336;2022-09-09T07:25:07;22.40;99.90
35565;DHT22;21668;44.784;10.336;2022-09-09T07:28:13;22.00;99.90
35565;DHT22;21668;44.784;10.336;2022-09-09T07:31:18;21.80;99.90
35565;DHT22;21668;44.784;10.336;2022-09-09T07:34:23;21.70;99.90
35565;DHT22;21668;44.784;10.336;2022-09-09T07:37:28;21.60;99.90
35565;DHT22;21668;44.784;10.336;2022-09-09T07:40:33;22.10;99.90
35565;DHT22;21668;44.784;10.336;2022-09-09T07:43:38;21.70;99.90
35565;DHT22;21668;44.784;10.336;2022-09-09T07:46:43;21.80;99.90
35565;DHT22;21668;44.784;10.336;2022-09-09T07:49:51;21.70;99.90
35565;DHT22;21668;44.784;10.336;2022-09-09T07:53:01;21.70;99.90
35565;DHT22;21668;44.784;10.336;2022-09-09T07:56:07;21.80;99.90
35565;DHT22;21668;44.784;10.336;2022-09-09T07:59:13;21.80;99.90
35565;DHT22;21668;44.784;10.336;2022-09-09T08:02:19;21.90;99.90
35565;DHT22;21668;44.784;10.336;2022-09-09T08:05:23;21.90;99.90
35565;DHT22;21668;44.784;10.336;2022-09-09T08:08:28;23.20;99.90
35565;DHT22;21668;44.784;10.336;2022-09-09T08:11:32;21.90;99.90
35565;DHT22;21668;44.784;10.336;2022-09-09T08:14:38;22.00;99.90
35565;DHT22;21668;44.784;10.336;2022-09-09T08:18:03;22.00;99.90
35565;DHT22;21668;44.784;10.336;2022-09-09T08:25:26;22.20;99.90
35565;DHT22;21668;44.784;10.336;2022-09-09T08:32:37;22.40;99.90
35565;DHT22;21668;44.784;10.336;2022-09-09T08:36:53;22.50;99.90
35565;DHT22;21668;44.784;10.336;2022-09-09T08:40:41;22.70;99.90
35565;DHT22;21668;44.784;10.336;2022-09-09T09:02:01;23.00;99.90
35565;DHT22;21668;44.784;10.336;2022-09-09T09:05:23;22.90;99.90
35565;DHT22;21668;44.784;10.336;2022-09-09T09:08:54;23.30;99.90
35565;DHT22;21668;44.784;10.336;2022-09-09T09:11:57;23.20;99.90
35565;DHT22;21668;44.784;10.336;2022-09-09T09:15:11;23.20;99.90
35565;DHT22;21668;44.784;10.336;2022-09-09T09:18:20;23.40;99.90
35565;DHT22;21668;44.784;10.336;2022-09-09T09:30:59;23.90;99.90
35565;DHT22;21668;44.784;10.336;2022-09-09T09:34:10;24.10;99.90
35565;DHT22;21668;44.784;10.336;2022-09-09T09:37:21;24.30;99.90
35565;DHT22;21668;44.784;10.336;2022-09-09T09:40:53;24.40;99.90
35565;DHT22;21668;44.784;10.336;2022-09-09T09:48:08;24.70;99.90
35565;DHT22;21668;44.784;10.336;2022-09-09T09:51:19;24.90;99.90
35565;DHT22;21668;44.784;10.336;2022-09-09T09:54:45;25.00;99.90
35565;DHT22;21668;44.784;10.336;2022-09-09T09:58:03;25.00;99.90
35565;DHT22;21668;44.784;10.336;2022-09-09T10:05:03;25.30;99.90
35565;DHT22;21668;44.784;10.336;2022-09-09T10:08:15;25.50;99.90
35565;DHT22;21668;44.784;10.336;2022-09-09T10:14:52;26.10;99.90
35565;DHT22;21668;44.784;10.336;2022-09-09T10:19:13;26.30;99.90
35565;DHT22;21668;44.784;10.336;2022-09-09T10:32:37;26.80;99.90
35565;DHT22;21668;44.784;10.336;2022-09-09T10:35:44;26.90;99.90
35565;DHT22;21668;44.784;10.336;2022-09-09T10:38:58;26.80;99.90
35565;DHT22;21668;44.784;10.336;2022-09-09T10:42:09;26.70;99.90
35565;DHT22;21668;44.784;10.336;2022-09-09T10:55:23;26.90;99.90
35565;DHT22;21668;44.784;10.336;2022-09-09T11:02:03;26.90;99.90
35565;DHT22;21668;44.784;10.336;2022-09-09T11:11:39;26.80;99.90
35565;DHT22;21668;44.784;10.336;2022-09-09T11:15:14;26.90;99.90
35565;DHT22;21668;44.784;10.336;2022-09-09T11:18:14;26.90;99.90
35565;DHT22;21668;44.784;10.336;2022-09-09T11:21:23;26.90;99.90
35565;DHT22;21668;44.784;10.336;2022-09-09T11:24:44;26.90;99.90
35565;DHT22;21668;44.784;10.336;2022-09-09T11:28:14;26.80;99.90
35565;DHT22;21668;44.784;10.336;2022-09-09T11:31:46;26.70;99.90
35565;DHT22;21668;44.784;10.336;2022-09-09T11:35:21;26.70;99.90
35565;DHT22;21668;44.784;10.336;2022-09-09T11:38:46;26.90;99.90
35565;DHT22;21668;44.784;10.336;2022-09-09T11:42:19;26.90;99.90
35565;DHT22;21668;44.784;10.336;2022-09-09T11:45:24;27.20;99.90
35565;DHT22;21668;44.784;10.336;2022-09-09T11:52:35;27.30;99.90
35565;DHT22;21668;44.784;10.336;2022-09-09T11:56:05;27.40;99.90
35565;DHT22;21668;44.784;10.336;2022-09-09T11:59:52;27.30;99.90
35565;DHT22;21668;44.784;10.336;2022-09-09T12:07:25;27.20;99.90
35565;DHT22;21668;44.784;10.336;2022-09-09T12:10:38;26.60;99.90
35565;DHT22;21668;44.784;10.336;2022-09-09T12:13:53;27.10;99.90
35565;DHT22;21668;44.784;10.336;2022-09-09T12:20:54;27.20;99.90
35565;DHT22;21668;44.784;10.336;2022-09-09T12:36:03;27.50;99.90
35565;DHT22;21668;44.784;10.336;2022-09-09T12:39:27;27.60;99.90
35565;DHT22;21668;44.784;10.336;2022-09-09T12:47:10;27.50;99.90
35565;DHT22;21668;44.784;10.336;2022-09-09T12:50:37;27.20;99.90
35565;DHT22;21668;44.784;10.336;2022-09-09T12:54:12;27.10;99.90
35565;DHT22;21668;44.784;10.336;2022-09-09T12:57:42;27.20;99.90
35565;DHT22;21668;44.784;10.336;2022-09-09T13:00:52;27.30;99.90
35565;DHT22;21668;44.784;10.336;2022-09-09T13:03:59;29.20;99.90
35565;DHT22;21668;44.784;10.336;2022-09-09T13:07:06;27.10;99.90
35565;DHT22;21668;44.784;10.336;2022-09-09T13:10:35;26.90;99.90
35565;DHT22;21668;44.784;10.336;2022-09-09T13:13:57;26.60;99.90
35565;DHT22;21668;44.784;10.336;2022-09-09T13:17:26;26.70;99.90
35565;DHT22;21668;44.784;10.336;2022-09-09T13:20:39;26.80;99.90
35565;DHT22;21668;44.784;10.336;2022-09-09T13:23:58;27.70;99.90
35565;DHT22;21668;44.784;10.336;2022-09-09T13:27:28;30.50;99.90
35565;DHT22;21668;44.784;10.336;2022-09-09T13:31:06;30.10;99.90
35565;DHT22;21668;44.784;10.336;2022-09-09T13:42:40;27.40;99.90
35565;DHT22;21668;44.784;10.336;2022-09-09T13:49:44;27.70;99.90
35565;DHT22;21668;44.784;10.336;2022-09-09T13:52:55;26.50;99.90
35565;DHT22;21668;44.784;10.336;2022-09-09T13:56:01;27.20;99.90
35565;DHT22;21668;44.784;10.336;2022-09-09T13:59:32;28.00;99.90
35565;DHT22;21668;44.784;10.336;2022-09-09T14:02:45;28.00;99.90
35565;DHT22;21668;44.784;10.336;2022-09-09T14:05:49;29.50;99.90
35565;DHT22;21668;44.784;10.336;2022-09-09T14:09:19;28.10;99.90
35565;DHT22;21668;44.784;10.336;2022-09-09T14:12:29;27.80;99.90
35565;DHT22;21668;44.784;10.336;2022-09-09T14:15:45;26.00;99.90
35565;DHT22;21668;44.784;10.336;2022-09-09T14:18:52;28.20;99.90
35565;DHT22;21668;44.784;10.336;2022-09-09T14:21:59;28.20;99.90
35565;DHT22;21668;44.784;10.336;2022-09-09T14:25:05;28.20;99.90
35565;DHT22;21668;44.784;10.336;2022-09-09T14:28:23;28.20;99.90
35565;DHT22;21668;44.784;10.336;2022-09-09T14:31:27;28.30;99.90
35565;DHT22;21668;44.784;10.336;2022-09-09T14:38:13;27.30;99.90
35565;DHT22;21668;44.784;10.336;2022-09-09T14:41:36;28.50;99.90
35565;DHT22;21668;44.784;10.336;2022-09-09T14:44:45;28.50;99.90
35565;DHT22;21668;44.784;10.336;2022-09-09T14:52:04;28.70;99.90
35565;DHT22;21668;44.784;10.336;2022-09-09T15:19:45;28.30;99.90
35565;DHT22;21668;44.784;10.336;2022-09-09T15:23:07;28.30;99.90
35565;DHT22;21668;44.784;10.336;2022-09-09T15:26:21;28.40;99.90
35565;DHT22;21668;44.784;10.336;2022-09-09T15:29:25;28.50;99.90
35565;DHT22;21668;44.784;10.336;2022-09-09T15:32:29;28.50;99.90
35565;DHT22;21668;44.784;10.336;2022-09-09T15:35:33;28.50;99.90
35565;DHT22;21668;44.784;10.336;2022-09-09T15:38:37;28.50;99.90
35565;DHT22;21668;44.784;10.336;2022-09-09T15:41:41;28.70;99.90
35565;DHT22;21668;44.784;10.336;2022-09-09T15:44:51;28.90;99.90
35565;DHT22;21668;44.784;10.336;2022-09-09T15:47:59;29.10;99.90
35565;DHT22;21668;44.784;10.336;2022-09-09T15:51:04;29.20;99.90
35565;DHT22;21668;44.784;10.336;2022-09-09T15:54:08;30.10;99.90
35565;DHT22;21668;44.784;10.336;2022-09-09T15:57:12;29.00;99.90
35565;DHT22;21668;44.784;10.336;2022-09-09T16:00:16;28.80;99.90
35565;DHT22;21668;44.784;10.336;2022-09-09T16:03:20;28.60;99.90
35565;DHT22;21668;44.784;10.336;2022-09-09T16:06:24;28.20;99.90
35565;DHT22;21668;44.784;10.336;2022-09-09T16:09:28;28.00;99.90
35565;DHT22;21668;44.784;10.336;2022-09-09T16:12:32;27.90;99.90
35565;DHT22;21668;44.784;10.336;2022-09-09T16:15:36;27.70;99.90
35565;DHT22;21668;44.784;10.336;2022-09-09T16:18:44;27.60;99.90
35565;DHT22;21668;44.784;10.336;2022-09-09T16:21:49;27.60;99.90
35565;DHT22;21668;44.784;10.336;2022-09-09T16:24:53;27.50;99.90
35565;DHT22;21668;44.784;10.336;2022-09-09T16:27:57;27.60;99.90
35565;DHT22;21668;44.784;10.336;2022-09-09T16:31:15;27.30;99.90
35565;DHT22;21668;44.784;10.336;2022-09-09T16:34:50;27.20;99.90
35565;DHT22;21668;44.784;10.336;2022-09-09T16:37:57;27.00;99.90
35565;DHT22;21668;44.784;10.336;2022-09-09T16:41:02;26.90;99.90
35565;DHT22;21668;44.784;10.336;2022-09-09T16:44:07;26.90;99.90
35565;DHT22;21668;44.784;10.336;2022-09-09T16:47:11;24.90;99.90
35565;DHT22;21668;44.784;10.336;2022-09-09T16:50:15;26.70;99.90
35565;DHT22;21668;44.784;10.336;2022-09-09T16:53:18;26.60;99.90
35565;DHT22;21668;44.784;10.336;2022-09-09T16:56:23;26.30;99.90
35565;DHT22;21668;44.784;10.336;2022-09-09T17:03:16;26.30;99.90
35565;DHT22;21668;44.784;10.336;2022-09-09T17:06:20;26.20;99.90
35565;DHT22;21668;44.784;10.336;2022-09-09T17:09:25;26.10;99.90
35565;DHT22;21668;44.784;10.336;2022-09-09T17:12:32;26.00;99.90
35565;DHT22;21668;44.784;10.336;2022-09-09T17:15:42;25.90;99.90
35565;DHT22;21668;44.784;10.336;2022-09-09T17:18:46;25.80;99.90
35565;DHT22;21668;44.784;10.336;2022-09-09T17:21:49;25.70;99.90
35565;DHT22;21668;44.784;10.336;2022-09-09T17:24:53;25.70;99.90
35565;DHT22;21668;44.784;10.336;2022-09-09T17:27:56;25.60;99.90
35565;DHT22;21668;44.784;10.336;2022-09-09T17:31:01;25.50;99.90
35565;DHT22;21668;44.784;10.336;2022-09-09T17:34:07;25.40;99.90
35565;DHT22;21668;44.784;10.336;2022-09-09T17:37:11;25.30;99.90
35565;DHT22;21668;44.784;10.336;2022-09-09T17:40:15;25.30;99.90
35565;DHT22;21668;44.784;10.336;2022-09-09T17:43:19;25.20;99.90
35565;DHT22;21668;44.784;10.336;2022-09-09T17:46:35;25.00;99.90
35565;DHT22;21668;44.784;10.336;2022-09-09T17:49:39;24.90;99.90
35565;DHT22;21668;44.784;10.336;2022-09-09T17:52:42;24.80;99.90
35565;DHT22;21668;44.784;10.336;2022-09-09T17:55:47;24.60;99.90
35565;DHT22;21668;44.784;10.336;2022-09-09T17:59:00;24.50;99.90
35565;DHT22;21668;44.784;10.336;2022-09-09T18:02:04;24.50;99.90
35565;DHT22;21668;44.784;10.336;2022-09-09T18:05:08;24.30;99.90
35565;DHT22;21668;44.784;10.336;2022-09-09T18:08:12;24.30;99.90
35565;DHT22;21668;44.784;10.336;2022-09-09T18:11:16;24.20;99.90
35565;DHT22;21668;44.784;10.336;2022-09-09T18:14:21;24.10;99.90
35565;DHT22;21668;44.784;10.336;2022-09-09T18:17:25;24.00;99.90
35565;DHT22;21668;44.784;10.336;2022-09-09T18:20:30;24.00;99.90
35565;DHT22;21668;44.784;10.336;2022-09-09T18:23:34;23.90;99.90
35565;DHT22;21668;44.784;10.336;2022-09-09T18:26:39;23.90;99.90
35565;DHT22;21668;44.784;10.336;2022-09-09T18:29:43;23.80;99.90
35565;DHT22;21668;44.784;10.336;2022-09-09T18:32:47;21.80;99.90
35565;DHT22;21668;44.784;10.336;2022-09-09T18:35:52;23.70;99.90
35565;DHT22;21668;44.784;10.336;2022-09-09T18:38:57;23.60;99.90
35565;DHT22;21668;44.784;10.336;2022-09-09T18:42:01;23.40;99.90
35565;DHT22;21668;44.784;10.336;2022-09-09T18:45:05;23.60;99.90
35565;DHT22;21668;44.784;10.336;2022-09-09T18:48:09;23.40;99.90
35565;DHT22;21668;44.784;10.336;2022-09-09T18:51:13;23.40;99.90
35565;DHT22;21668;44.784;10.336;2022-09-09T18:54:18;23.30;99.90
35565;DHT22;21668;44.784;10.336;2022-09-09T18:57:22;23.20;99.90
35565;DHT22;21668;44.784;10.336;2022-09-09T19:00:26;23.20;99.90
35565;DHT22;21668;44.784;10.336;2022-09-09T19:03:33;23.20;99.90
35565;DHT22;21668;44.784;10.336;2022-09-09T19:06:39;23.10;99.90
35565;DHT22;21668;44.784;10.336;2022-09-09T19:09:44;23.00;99.90
35565;DHT22;21668;44.784;10.336;2022-09-09T19:12:51;23.00;99.90
35565;DHT22;21668;44.784;10.336;2022-09-09T19:15:55;23.00;99.90
35565;DHT22;21668;44.784;10.336;2022-09-09T19:19:03;23.00;99.90
35565;DHT22;21668;44.784;10.336;2022-09-09T19:22:08;23.00;99.90
35565;DHT22;21668;44.784;10.336;2022-09-09T19:25:14;22.90;99.90
35565;DHT22;21668;44.784;10.336;2022-09-09T19:28:18;22.90;99.90
35565;DHT22;21668;44.784;10.336;2022-09-09T19:31:21;22.80;99.90
35565;DHT22;21668;44.784;10.336;2022-09-09T19:34:26;22.90;99.90
35565;DHT22;21668;44.784;10.336;2022-09-09T19:37:30;22.80;99.90
35565;DHT22;21668;44.784;10.336;2022-09-09T19:40:34;22.80;99.90
35565;DHT22;21668;44.784;10.336;2022-09-09T19:43:38;22.80;99.90
35565;DHT22;21668;44.784;10.336;2022-09-09T19:46:43;22.70;99.90
35565;DHT22;21668;44.784;10.336;2022-09-09T19:49:48;22.70;99.90
35565;DHT22;21668;44.784;10.336;2022-09-09T19:52:52;22.70;99.90
35565;DHT22;21668;44.784;10.336;2022-09-09T19:55:57;22.70;99.90
35565;DHT22;21668;44.784;10.336;2022-09-09T19:59:01;22.70;99.90
35565;DHT22;21668;44.784;10.336;2022-09-09T20:02:05;22.70;99.90
35565;DHT22;21668;44.784;10.336;2022-09-09T20:05:08;22.70;99.90
35565;DHT22;21668;44.784;10.336;2022-09-09T20:08:12;22.70;99.90
35565;DHT22;21668;44.784;10.336;2022-09-09T20:11:16;22.60;99.90
35565;DHT22;21668;44.784;10.336;2022-09-09T20:14:20;22.60;99.90
35565;DHT22;21668;44.784;10.336;2022-09-09T20:17:24;25.10;99.90
35565;DHT22;21668;44.784;10.336;2022-09-09T20:20:28;22.50;99.90
35565;DHT22;21668;44.784;10.336;2022-09-09T20:23:32;22.40;99.90
35565;DHT22;21668;44.784;10.336;2022-09-09T20:26:36;22.40;99.90
35565;DHT22;21668;44.784;10.336;2022-09-09T20:29:40;22.40;99.90
35565;DHT22;21668;44.784;10.336;2022-09-09T20:32:44;22.40;99.90
35565;DHT22;21668;44.784;10.336;2022-09-09T20:35:50;22.30;99.90
35565;DHT22;21668;44.784;10.336;2022-09-09T20:38:56;22.40;99.90
35565;DHT22;21668;44.784;10.336;2022-09-09T20:42:03;22.30;99.90
35565;DHT22;21668;44.784;10.336;2022-09-09T20:45:06;22.30;99.90
35565;DHT22;21668;44.784;10.336;2022-09-09T20:48:12;22.20;99.90
35565;DHT22;21668;44.784;10.336;2022-09-09T20:51:17;22.30;99.90
35565;DHT22;21668;44.784;10.336;2022-09-09T20:54:23;22.30;99.90
35565;DHT22;21668;44.784;10.336;2022-09-09T20:57:27;22.20;99.90
35565;DHT22;21668;44.784;10.336;2022-09-09T21:00:30;22.10;99.90
35565;DHT22;21668;44.784;10.336;2022-09-09T21:03:35;22.10;99.90
35565;DHT22;21668;44.784;10.336;2022-09-09T21:06:41;22.00;99.90
35565;DHT22;21668;44.784;10.336;2022-09-09T21:09:45;21.90;99.90
35565;DHT22;21668;44.784;10.336;2022-09-09T21:12:49;21.90;99.90
35565;DHT22;21668;44.784;10.336;2022-09-09T21:15:52;21.80;99.90
35565;DHT22;21668;44.784;10.336;2022-09-09T21:18:55;21.80;99.90
35565;DHT22;21668;44.784;10.336;2022-09-09T21:21:59;21.80;99.90
35565;DHT22;21668;44.784;10.336;2022-09-09T21:25:02;21.90;99.90
35565;DHT22;21668;44.784;10.336;2022-09-09T21:28:06;21.90;99.90
35565;DHT22;21668;44.784;10.336;2022-09-09T21:31:19;21.80;99.90
35565;DHT22;21668;44.784;10.336;2022-09-09T21:34:23;21.90;99.90
35565;DHT22;21668;44.784;10.336;2022-09-09T21:37:26;21.90;99.90
35565;DHT22;21668;44.784;10.336;2022-09-09T21:40:30;21.90;99.90
35565;DHT22;21668;44.784;10.336;2022-09-09T21:43:34;21.80;99.90
35565;DHT22;21668;44.784;10.336;2022-09-09T21:46:38;21.70;99.90
35565;DHT22;21668;44.784;10.336;2022-09-09T21:49:42;21.70;99.90
35565;DHT22;21668;44.784;10.336;2022-09-09T21:52:45;21.60;99.90
35565;DHT22;21668;44.784;10.336;2022-09-09T21:55:49;21.60;99.90
35565;DHT22;21668;44.784;10.336;2022-09-09T21:58:54;21.60;99.90
35565;DHT22;21668;44.784;10.336;2022-09-09T22:01:59;21.60;99.90
35565;DHT22;21668;44.784;10.336;2022-09-09T22:05:03;21.50;99.90
35565;DHT22;21668;44.784;10.336;2022-09-09T22:08:07;21.40;99.90
35565;DHT22;21668;44.784;10.336;2022-09-09T22:11:12;21.40;99.90
35565;DHT22;21668;44.784;10.336;2022-09-09T22:14:17;21.30;99.90
35565;DHT22;21668;44.784;10.336;2022-09-09T22:17:21;21.20;99.90
35565;DHT22;21668;44.784;10.336;2022-09-09T22:20:26;21.20;99.90
35565;DHT22;21668;44.784;10.336;2022-09-09T22:23:30;21.20;99.90
35565;DHT22;21668;44.784;10.336;2022-09-09T22:26:34;21.20;99.90
35565;DHT22;21668;44.784;10.336;2022-09-09T22:29:39;21.20;99.90
35565;DHT22;21668;44.784;10.336;2022-09-09T22:32:43;21.10;99.90
35565;DHT22;21668;44.784;10.336;2022-09-09T22:35:46;21.10;99.90
35565;DHT22;21668;44.784;10.336;2022-09-09T22:38:51;21.00;99.90
35565;DHT22;21668;44.784;10.336;2022-09-09T22:41:55;20.90;99.90
35565;DHT22;21668;44.784;10.336;2022-09-09T22:44:59;20.80;99.90
35565;DHT22;21668;44.784;10.336;2022-09-09T22:48:03;20.70;99.90
35565;DHT22;21668;44.784;10.336;2022-09-09T22:51:08;20.70;99.90
35565;DHT22;21668;44.784;10.336;2022-09-09T22:54:13;20.70;99.90
35565;DHT22;21668;44.784;10.336;2022-09-09T22:57:17;20.60;99.90
35565;DHT22;21668;44.784;10.336;2022-09-09T23:00:24;20.60;99.90
35565;DHT22;21668;44.784;10.336;2022-09-09T23:03:29;20.60;99.90
35565;DHT22;21668;44.784;10.336;2022-09-09T23:06:33;20.50;99.90
35565;DHT22;21668;44.784;10.336;2022-09-09T23:09:37;20.50;99.90
35565;DHT22;21668;44.784;10.336;2022-09-09T23:12:41;20.50;99.90
35565;DHT22;21668;44.784;10.336;2022-09-09T23:15:45;20.50;99.90
35565;DHT22;21668;44.784;10.336;2022-09-09T23:18:49;20.50;99.90
35565;DHT22;21668;44.784;10.336;2022-09-09T23:21:54;20.50;99.90
35565;DHT22;21668;44.784;10.336;2022-09-09T23:24:59;20.50;99.90
35565;DHT22;21668;44.784;10.336;2022-09-09T23:28:03;20.40;99.90
35565;DHT22;21668;44.784;10.336;2022-09-09T23:31:09;20.50;99.90
35565;DHT22;21668;44.784;10.336;2022-09-09T23:34:13;20.50;99.90
35565;DHT22;21668;44.784;10.336;2022-09-09T23:37:17;20.50;99.90
35565;DHT22;21668;44.784;10.336;2022-09-09T23:40:21;20.50;99.90
35565;DHT22;21668;44.784;10.336;2022-09-09T23:43:25;20.40;99.90
35565;DHT22;21668;44.784;10.336;2022-09-09T23:46:30;20.40;99.90
35565;DHT22;21668;44.784;10.336;2022-09-09T23:49:34;20.40;99.90
35565;DHT22;21668;44.784;10.336;2022-09-09T23:52:38;20.40;99.90
35565;DHT22;21668;44.784;10.336;2022-09-09T23:55:46;20.50;99.90
35565;DHT22;21668;44.784;10.336;2022-09-09T23:58:50;20.40;99.90
